createdAt,value
2022-10-13T00:44:06.799Z,3.50
2022-10-13T00:47:00.048Z,4.17
2022-10-13T00:56:47.150Z,3.67
2022-10-13T00:59:45.201Z,3.70
2022-10-13T01:02:34.634Z,3.60
2022-10-13T01:05:41.250Z,5.27
2022-10-13T01:09:17.407Z,3.93
2022-10-13T01:27:16.516Z,6.57
2022-10-13T03:35:05.525Z,3.93
2022-10-13T03:38:30.532Z,3.90
2022-10-13T06:33:06.094Z,4.80
2022-10-13T06:35:34.793Z,6.23
2022-10-13T06:38:03.428Z,4.93
2022-10-13T06:40:32.285Z,4.80
2022-10-13T06:43:02.203Z,6.33
2022-10-13T06:46:18.006Z,6.23
2022-10-13T07:52:44.313Z,4.63
2022-10-13T07:55:15.749Z,5.27
2022-10-13T07:58:39.599Z,4.30
2022-10-13T08:01:20.378Z,4.97
2022-10-13T08:03:51.134Z,5.20
2022-10-13T08:06:31.581Z,4.53
2022-10-13T08:11:46.744Z,12.17
2022-10-13T08:17:20.776Z,6.47
2022-10-13T08:23:35.360Z,7.50
2022-10-13T08:26:18.952Z,6.30
2022-10-13T08:29:02.801Z,6.00
2022-10-13T08:32:06.197Z,7.07
2022-10-13T08:34:39.890Z,7.23
2022-10-13T08:37:08.060Z,4.57
2022-10-13T08:39:37.130Z,4.53
2022-10-13T08:42:18.578Z,3.33
2022-10-13T08:45:16.095Z,4.83
2022-10-13T08:48:48.170Z,4.20
2022-10-13T08:51:32.941Z,3.77
2022-10-13T08:55:09.236Z,3.70
2022-10-13T08:57:43.912Z,4.37
2022-10-13T09:00:32.582Z,4.97
2022-10-13T09:03:16.060Z,5.60
2022-10-13T09:06:07.747Z,9.03
2022-10-13T09:08:42.572Z,4.57
2022-10-13T09:11:13.882Z,4.40
2022-10-13T09:23:08.345Z,3.80
2022-10-13T09:33:52.816Z,3.73
2022-10-13T09:37:15.842Z,4.50
2022-10-13T09:39:44.098Z,4.17
2022-10-13T09:42:32.034Z,3.87
2022-10-13T09:45:34.738Z,4.10
2022-10-13T09:50:49.133Z,4.00
2022-10-13T09:53:25.904Z,5.60
2022-10-13T09:56:10.160Z,4.20
2022-10-13T10:01:22.356Z,4.57
2022-10-13T10:03:52.474Z,4.00
2022-10-13T10:06:28.078Z,4.40
2022-10-13T10:09:04.825Z,4.00
2022-10-13T10:11:40.237Z,3.47
2022-10-13T10:14:18.967Z,4.00
2022-10-13T10:16:58.679Z,4.10
2022-10-13T10:19:50.415Z,4.17
2022-10-13T10:22:35.984Z,5.87
2022-10-13T10:25:46.303Z,3.60
2022-10-13T10:28:45.649Z,3.40
2022-10-13T10:31:28.616Z,4.40
2022-10-13T10:34:07.304Z,3.20
2022-10-13T10:36:43.482Z,3.07
2022-10-13T10:39:28.169Z,5.87
2022-10-13T10:42:04.837Z,3.60
2022-10-13T10:44:55.602Z,3.47
2022-10-13T10:47:28.416Z,4.77
2022-10-13T10:50:08.555Z,3.87
2022-10-13T10:52:52.230Z,2.77
2022-10-13T10:58:33.607Z,4.13
2022-10-13T11:04:40.516Z,2.90
2022-10-13T11:07:15.055Z,2.80
2022-10-13T11:10:21.512Z,2.90
2022-10-13T11:13:26.409Z,2.80
2022-10-13T11:15:55.616Z,2.70
2022-10-13T11:19:06.082Z,2.97
2022-10-13T11:22:10.895Z,3.30
2022-10-13T11:24:54.578Z,2.70
2022-10-13T11:27:29.457Z,2.40
2022-10-13T11:30:01.358Z,2.10
2022-10-13T11:32:55.756Z,2.07
2022-10-13T11:35:29.871Z,2.00
2022-10-13T11:38:17.930Z,2.33
2022-10-13T11:41:06.147Z,2.53
2022-10-13T11:43:45.612Z,2.70
2022-10-13T11:46:27.911Z,2.40
2022-10-13T11:49:11.895Z,2.63
2022-10-13T11:52:07.143Z,2.07
2022-10-13T11:54:39.555Z,1.60
2022-10-13T11:57:20.220Z,1.87
2022-10-13T11:59:49.642Z,1.33
2022-10-13T12:02:20.141Z,1.53
2022-10-13T12:05:02.485Z,1.83
2022-10-13T12:07:36.634Z,1.50
2022-10-13T12:10:09.833Z,1.73
2022-10-13T12:12:46.976Z,1.53
2022-10-13T12:15:31.402Z,1.80
2022-10-13T12:18:01.243Z,1.67
2022-10-13T12:20:31.643Z,1.80
2022-10-13T12:23:02.130Z,1.83
2022-10-13T12:25:33.916Z,1.93
2022-10-13T12:28:03.675Z,2.37
2022-10-13T12:30:37.412Z,1.77
2022-10-13T12:33:24.113Z,1.60
2022-10-13T12:35:52.396Z,1.63
2022-10-13T12:38:22.367Z,1.23
2022-10-13T12:40:53.720Z,1.37
2022-10-13T12:43:26.639Z,1.57
2022-10-13T12:49:10.874Z,1.60
2022-10-13T12:51:41.848Z,1.13
2022-10-13T12:54:33.433Z,1.53
2022-10-13T12:57:08.536Z,1.40
2022-10-13T12:59:51.653Z,1.20
2022-10-13T13:02:27.296Z,1.80
2022-10-13T13:05:04.921Z,1.83
2022-10-13T13:07:54.767Z,1.77
2022-10-13T13:10:24.576Z,1.20
2022-10-13T13:12:55.759Z,1.47
2022-10-13T13:15:36.053Z,1.70
2022-10-13T13:18:36.250Z,1.27
2022-10-13T13:21:07.319Z,1.37
2022-10-13T13:23:37.054Z,1.40
2022-10-13T13:26:13.376Z,1.33
2022-10-13T13:28:47.795Z,1.60
2022-10-13T13:31:18.411Z,1.43
2022-10-13T13:33:47.948Z,1.60
2022-10-13T13:36:20.219Z,1.60
2022-10-13T13:38:51.625Z,1.67
2022-10-13T13:41:22.405Z,1.63
2022-10-13T13:43:52.177Z,1.70
2022-10-13T13:46:27.968Z,1.53
2022-10-13T13:48:58.035Z,1.67
2022-10-13T13:51:27.449Z,1.50
2022-10-13T13:54:08.632Z,1.57
2022-10-13T13:56:38.751Z,1.80
2022-10-13T13:59:08.360Z,1.60
2022-10-13T14:01:37.056Z,1.10
2022-10-13T14:04:05.843Z,1.60
2022-10-13T14:06:34.639Z,1.70
2022-10-13T14:09:05.495Z,1.33
2022-10-13T14:11:33.922Z,1.30
2022-10-13T14:14:05.491Z,1.53
2022-10-13T14:16:33.673Z,1.00
2022-10-13T14:19:02.318Z,1.23
2022-10-13T14:21:31.954Z,1.47
2022-10-13T14:24:04.757Z,1.40
2022-10-13T14:26:35.516Z,1.40
2022-10-13T14:29:06.079Z,1.27
2022-10-13T14:31:37.930Z,1.27
2022-10-13T14:34:06.308Z,1.67
2022-10-13T14:36:36.162Z,0.83
2022-10-13T14:39:05.056Z,1.03
2022-10-13T14:41:35.245Z,1.30
2022-10-13T14:44:05.753Z,1.23
2022-10-13T14:46:34.161Z,1.30
2022-10-13T14:49:02.988Z,1.00
2022-10-13T14:51:33.499Z,1.43
2022-10-13T14:54:06.456Z,1.27
2022-10-13T14:56:36.866Z,1.60
2022-10-13T14:59:07.800Z,1.10
2022-10-13T15:01:36.029Z,0.90
2022-10-13T15:04:08.103Z,1.37
2022-10-13T15:06:42.016Z,1.00
2022-10-13T15:09:14.499Z,1.10
2022-10-13T15:11:48.809Z,0.70
2022-10-13T15:14:17.986Z,1.00
2022-10-13T15:16:48.103Z,1.07
2022-10-13T15:19:16.862Z,1.03
2022-10-13T15:21:46.153Z,1.13
2022-10-13T15:24:17.362Z,1.20
2022-10-13T15:26:58.179Z,0.93
2022-10-13T15:29:27.675Z,0.70
2022-10-13T15:32:13.543Z,0.80
2022-10-13T15:34:53.038Z,0.83
2022-10-13T15:40:28.037Z,0.90
2022-10-13T15:42:57.947Z,1.00
2022-10-13T15:45:27.837Z,1.00
2022-10-13T15:48:07.768Z,1.07
2022-10-13T15:50:39.959Z,1.03
2022-10-13T15:53:08.721Z,0.93
2022-10-13T15:55:50.988Z,1.00
2022-10-13T15:58:25.544Z,1.07
2022-10-13T16:00:53.872Z,1.17
2022-10-13T16:03:22.443Z,1.50
2022-10-13T16:05:51.686Z,1.03
2022-10-13T16:08:20.335Z,1.23
2022-10-13T16:10:51.582Z,1.20
2022-10-13T16:13:21.343Z,1.70
2022-10-13T16:16:05.124Z,1.33
2022-10-13T16:18:39.442Z,1.20
2022-10-13T16:21:17.320Z,1.30
2022-10-13T16:23:55.929Z,1.03
2022-10-13T16:26:36.388Z,0.90
2022-10-13T16:29:06.335Z,1.10
2022-10-13T16:31:40.871Z,1.40
2022-10-13T16:34:17.135Z,1.30
2022-10-13T16:36:45.363Z,1.23
2022-10-13T16:39:13.589Z,1.33
2022-10-13T16:41:42.009Z,1.57
2022-10-13T16:44:15.847Z,1.53
2022-10-13T16:46:44.956Z,1.20
2022-10-13T16:49:13.732Z,1.67
2022-10-13T16:51:42.085Z,1.20
2022-10-13T16:54:10.220Z,1.17
2022-10-13T16:56:38.572Z,1.77
2022-10-13T16:59:07.928Z,1.60
2022-10-13T17:01:37.863Z,1.70
2022-10-13T17:04:06.554Z,1.57
2022-10-13T17:06:40.927Z,1.70
2022-10-13T17:09:14.602Z,1.50
2022-10-13T17:11:43.612Z,1.93
2022-10-13T17:14:12.386Z,1.57
2022-10-13T17:16:57.955Z,2.00
2022-10-13T17:19:26.741Z,1.67
2022-10-13T17:21:55.278Z,1.87
2022-10-13T17:24:24.061Z,1.50
2022-10-13T17:26:52.273Z,1.80
2022-10-13T17:29:20.652Z,1.80
2022-10-13T17:32:00.438Z,2.00
2022-10-13T17:34:28.781Z,2.10
2022-10-13T17:36:56.927Z,2.00
2022-10-13T17:39:24.847Z,2.67
2022-10-13T17:41:52.881Z,2.73
2022-10-13T17:44:21.432Z,2.10
2022-10-13T17:46:51.008Z,1.73
2022-10-13T17:49:19.351Z,2.33
2022-10-13T17:51:47.803Z,3.00
2022-10-13T17:54:16.789Z,2.37
2022-10-13T17:56:45.427Z,2.70
2022-10-13T17:59:13.870Z,2.97
2022-10-13T18:01:42.693Z,3.20
2022-10-13T18:04:15.484Z,2.80
2022-10-13T18:06:44.890Z,2.50
2022-10-13T18:09:15.191Z,2.67
2022-10-13T18:11:49.673Z,2.17
2022-10-13T18:14:18.310Z,2.50
2022-10-13T18:16:46.950Z,2.30
2022-10-13T18:19:16.788Z,1.90
2022-10-13T18:21:44.959Z,2.40
2022-10-13T18:24:13.368Z,2.10
2022-10-13T18:26:42.260Z,3.97
2022-10-13T18:29:12.168Z,4.70
2022-10-13T18:31:44.097Z,4.90
2022-10-13T18:34:15.121Z,7.87
2022-10-13T18:36:47.381Z,6.77
2022-10-13T18:39:18.152Z,6.93
2022-10-13T18:41:46.865Z,5.70
2022-10-13T18:44:15.400Z,6.93
2022-10-13T18:46:44.016Z,9.43
2022-10-13T18:49:14.525Z,11.50
2022-10-13T18:51:42.884Z,7.67
2022-10-13T18:54:13.005Z,5.37
2022-10-13T18:56:41.293Z,11.00
2022-10-13T18:59:10.063Z,7.50
2022-10-13T19:01:39.593Z,4.97
2022-10-13T19:04:15.255Z,8.77
2022-10-13T19:06:44.353Z,8.83
2022-10-13T19:09:26.562Z,8.60
2022-10-13T19:11:57.105Z,7.90
2022-10-13T19:14:25.784Z,7.97
2022-10-13T19:16:57.066Z,4.70
2022-10-13T19:19:28.032Z,7.00
2022-10-13T19:21:56.875Z,7.03
2022-10-13T19:24:26.631Z,6.97
2022-10-13T19:26:56.330Z,7.00
2022-10-13T19:29:24.675Z,5.90
2022-10-13T19:31:53.116Z,7.70
2022-10-13T19:34:21.436Z,6.10
2022-10-13T19:36:50.080Z,6.77
2022-10-13T19:39:21.458Z,5.80
2022-10-13T19:41:53.425Z,11.17
2022-10-13T19:44:23.563Z,11.37
2022-10-13T19:46:53.215Z,11.70
2022-10-13T19:49:23.632Z,5.43
2022-10-13T19:51:53.912Z,6.87
2022-10-13T19:54:23.191Z,8.40
2022-10-13T19:56:53.879Z,8.70
2022-10-13T19:59:22.252Z,6.47
2022-10-13T20:01:50.960Z,5.47
2022-10-13T20:04:21.115Z,4.17
2022-10-13T20:06:50.528Z,3.87
2022-10-13T20:09:18.854Z,11.60
2022-10-13T20:11:50.095Z,13.77
2022-10-13T20:14:20.306Z,11.20
2022-10-13T20:16:48.622Z,9.33
2022-10-13T20:19:19.612Z,9.80
2022-10-13T20:21:51.687Z,13.43
2022-10-13T20:24:20.795Z,11.87
2022-10-13T20:26:48.877Z,10.90
2022-10-13T20:29:17.325Z,9.27
2022-10-13T20:31:47.558Z,8.40
2022-10-13T20:34:15.803Z,5.13
2022-10-13T20:36:45.045Z,4.67
2022-10-13T20:39:13.175Z,5.23
2022-10-13T20:41:41.490Z,5.63
2022-10-13T20:44:11.302Z,6.27
2022-10-13T20:46:40.270Z,4.03
2022-10-13T20:49:12.274Z,6.07
2022-10-13T20:51:42.898Z,6.20
2022-10-13T20:54:11.983Z,5.33
2022-10-13T20:56:40.977Z,5.67
2022-10-13T20:59:10.787Z,6.33
2022-10-13T21:01:39.686Z,6.40
2022-10-13T21:04:10.326Z,4.80
2022-10-13T21:06:38.668Z,4.80
2022-10-13T21:09:07.389Z,4.50
2022-10-13T21:11:36.495Z,5.23
2022-10-13T21:14:07.103Z,4.10
2022-10-13T21:16:36.322Z,4.00
2022-10-13T21:19:04.984Z,4.43
2022-10-13T21:21:36.132Z,4.37
2022-10-13T21:24:07.590Z,4.23
2022-10-13T21:26:36.678Z,4.30
2022-10-13T21:29:06.383Z,4.60
2022-10-13T21:31:35.079Z,6.23
2022-10-13T21:34:03.494Z,4.80
2022-10-13T21:36:35.820Z,4.37
2022-10-13T21:39:27.360Z,4.30
2022-10-13T21:41:56.645Z,4.87
2022-10-13T21:44:28.099Z,4.30
2022-10-13T21:46:56.377Z,4.37
2022-10-13T21:49:24.660Z,4.00
2022-10-13T21:51:54.675Z,4.30
2022-10-13T21:54:23.259Z,5.30
2022-10-13T21:56:51.838Z,4.60
2022-10-13T21:59:20.165Z,4.00
2022-10-13T22:01:50.256Z,3.90
2022-10-13T22:04:22.852Z,3.63
2022-10-13T22:06:55.898Z,3.50
2022-10-13T22:09:25.756Z,3.40
2022-10-13T22:11:57.771Z,3.70
2022-10-13T22:14:30.805Z,4.03
2022-10-13T22:17:05.429Z,3.80
2022-10-13T22:19:35.052Z,4.20
2022-10-13T22:22:03.915Z,3.80
2022-10-13T22:24:35.687Z,3.70
2022-10-13T22:27:12.808Z,3.20
2022-10-13T22:29:43.301Z,3.13
2022-10-13T22:32:13.380Z,3.73
2022-10-13T22:34:44.287Z,3.93
2022-10-13T22:37:13.562Z,3.87
2022-10-13T22:39:43.239Z,3.43
2022-10-13T22:42:15.287Z,3.67
2022-10-13T22:44:43.874Z,4.00
2022-10-13T22:47:12.361Z,3.70
2022-10-13T22:49:41.483Z,3.87
2022-10-13T22:52:10.263Z,3.73
2022-10-13T22:54:38.514Z,3.93
2022-10-13T22:57:08.338Z,3.50
2022-10-13T22:59:36.831Z,3.07
2022-10-13T23:02:05.311Z,3.27
2022-10-13T23:04:33.739Z,4.30
2022-10-13T23:07:02.037Z,3.90
2022-10-13T23:09:31.143Z,3.60
2022-10-13T23:12:00.059Z,3.23
2022-10-13T23:14:29.836Z,4.17
2022-10-13T23:16:58.450Z,4.03
2022-10-13T23:19:27.700Z,3.57
2022-10-13T23:21:56.043Z,3.83
2022-10-13T23:24:24.345Z,4.07
2022-10-13T23:26:56.101Z,3.53
2022-10-13T23:29:24.389Z,3.90
2022-10-13T23:31:54.242Z,3.83
2022-10-13T23:34:23.135Z,4.23
2022-10-13T23:36:56.069Z,3.40
2022-10-13T23:39:24.451Z,3.17
2022-10-13T23:41:52.758Z,3.33
2022-10-13T23:44:20.959Z,3.67
2022-10-13T23:46:49.210Z,3.60
2022-10-13T23:49:19.098Z,3.90
2022-10-13T23:51:49.144Z,3.87
2022-10-13T23:54:17.238Z,3.20
2022-10-13T23:56:45.511Z,3.47
2022-10-13T23:59:13.791Z,3.20
